sensor_id;sensor_type;location;lat;lon;timestamp;pressure;altitude;pressure_sealevel;temperature;humidity
82035;BME280;71599;49.892;18.914;2023-07-20T00:00:25;97943.88;;;20.47;61.49
82035;BME280;71599;49.892;18.914;2023-07-20T00:05:47;97944.56;;;20.35;60.19
82035;BME280;71599;49.892;18.914;2023-07-20T00:10:48;97955.00;;;20.44;59.68
82035;BME280;71599;49.892;18.914;2023-07-20T00:15:49;98020.44;;;20.34;61.75
82035;BME280;71599;49.892;18.914;2023-07-20T00:20:52;98009.44;;;20.31;59.95
82035;BME280;71599;49.892;18.914;2023-07-20T00:25:53;98010.53;;;20.37;59.85
82035;BME280;71599;49.892;18.914;2023-07-20T00:30:54;98008.56;;;20.53;57.20
82035;BME280;71599;49.892;18.914;2023-07-20T00:35:56;98002.06;;;20.60;56.23
82035;BME280;71599;49.892;18.914;2023-07-20T00:40:57;98011.06;;;20.64;56.53
82035;BME280;71599;49.892;18.914;2023-07-20T00:45:58;98017.91;;;20.59;57.58
82035;BME280;71599;49.892;18.914;2023-07-20T00:51:01;98004.13;;;20.56;57.17
82035;BME280;71599;49.892;18.914;2023-07-20T00:56:03;97992.28;;;20.39;58.43
82035;BME280;71599;49.892;18.914;2023-07-20T01:01:04;97982.88;;;20.37;57.95
82035;BME280;71599;49.892;18.914;2023-07-20T01:06:13;97975.16;;;20.44;58.87
82035;BME280;71599;49.892;18.914;2023-07-20T01:11:18;97989.59;;;20.36;59.20
82035;BME280;71599;49.892;18.914;2023-07-20T01:16:23;97995.91;;;20.36;60.28
82035;BME280;71599;49.892;18.914;2023-07-20T01:21:31;97976.88;;;20.38;61.87
82035;BME280;71599;49.892;18.914;2023-07-20T01:32:23;97995.91;;;20.36;61.84
82035;BME280;71599;49.892;18.914;2023-07-20T01:37:26;97981.50;;;20.25;60.94
82035;BME280;71599;49.892;18.914;2023-07-20T01:42:28;97990.81;;;20.15;62.71
82035;BME280;71599;49.892;18.914;2023-07-20T01:47:31;98000.69;;;19.96;61.86
82035;BME280;71599;49.892;18.914;2023-07-20T01:52:32;98006.72;;;20.11;61.62
82035;BME280;71599;49.892;18.914;2023-07-20T01:57:33;98001.81;;;20.18;61.35
82035;BME280;71599;49.892;18.914;2023-07-20T02:02:35;97993.72;;;20.08;61.17
82035;BME280;71599;49.892;18.914;2023-07-20T02:07:36;98029.53;;;19.95;62.75
82035;BME280;71599;49.892;18.914;2023-07-20T02:12:37;98044.50;;;19.78;62.21
82035;BME280;71599;49.892;18.914;2023-07-20T02:17:40;98046.72;;;19.87;60.53
82035;BME280;71599;49.892;18.914;2023-07-20T02:22:41;98043.22;;;19.82;60.53
82035;BME280;71599;49.892;18.914;2023-07-20T02:27:42;98044.09;;;19.79;60.58
82035;BME280;71599;49.892;18.914;2023-07-20T02:32:44;98044.09;;;19.79;59.77
82035;BME280;71599;49.892;18.914;2023-07-20T02:37:45;98046.94;;;19.76;59.50
82035;BME280;71599;49.892;18.914;2023-07-20T02:42:46;98072.78;;;19.66;59.70
82035;BME280;71599;49.892;18.914;2023-07-20T02:47:48;98060.94;;;19.42;59.60
82035;BME280;71599;49.892;18.914;2023-07-20T02:52:49;98072.47;;;19.37;59.33
82035;BME280;71599;49.892;18.914;2023-07-20T02:57:50;98078.25;;;19.23;58.98
82035;BME280;71599;49.892;18.914;2023-07-20T03:02:52;98076.94;;;19.08;59.85
82035;BME280;71599;49.892;18.914;2023-07-20T03:07:55;98094.63;;;19.10;60.64
82035;BME280;71599;49.892;18.914;2023-07-20T03:12:56;98101.59;;;18.95;60.40
82035;BME280;71599;49.892;18.914;2023-07-20T03:17:58;98113.19;;;18.83;61.21
82035;BME280;71599;49.892;18.914;2023-07-20T03:22:59;98130.88;;;18.85;61.19
82035;BME280;71599;49.892;18.914;2023-07-20T03:28:00;98141.47;;;18.63;62.95
82035;BME280;71599;49.892;18.914;2023-07-20T03:33:02;98157.44;;;18.76;61.08
82035;BME280;71599;49.892;18.914;2023-07-20T03:38:03;98159.03;;;18.77;62.16
82035;BME280;71599;49.892;18.914;2023-07-20T03:43:04;98174.50;;;18.67;62.19
82035;BME280;71599;49.892;18.914;2023-07-20T03:48:07;98167.19;;;18.53;62.98
82035;BME280;71599;49.892;18.914;2023-07-20T03:53:08;98154.59;;;18.49;63.46
82035;BME280;71599;49.892;18.914;2023-07-20T03:58:09;98170.22;;;18.66;61.88
82035;BME280;71599;49.892;18.914;2023-07-20T04:03:11;98172.81;;;18.77;61.39
82035;BME280;71599;49.892;18.914;2023-07-20T04:08:12;98171.75;;;18.67;62.83
82035;BME280;71599;49.892;18.914;2023-07-20T04:13:13;98166.41;;;18.83;61.14
82035;BME280;71599;49.892;18.914;2023-07-20T04:18:16;98182.31;;;19.02;61.84
82035;BME280;71599;49.892;18.914;2023-07-20T04:23:17;98180.28;;;19.07;62.71
82035;BME280;71599;49.892;18.914;2023-07-20T04:28:18;98186.88;;;19.13;61.89
82035;BME280;71599;49.892;18.914;2023-07-20T04:33:20;98189.91;;;19.49;62.37
82035;BME280;71599;49.892;18.914;2023-07-20T04:38:21;98178.28;;;20.83;58.25
82035;BME280;71599;49.892;18.914;2023-07-20T04:43:22;98176.59;;;22.18;53.53
82035;BME280;71599;49.892;18.914;2023-07-20T04:48:24;98169.66;;;23.44;51.61
82035;BME280;71599;49.892;18.914;2023-07-20T04:53:25;98161.03;;;23.17;50.90
82035;BME280;71599;49.892;18.914;2023-07-20T04:58:26;98150.13;;;22.84;51.67
82035;BME280;71599;49.892;18.914;2023-07-20T05:03:29;98144.97;;;23.46;50.29
82035;BME280;71599;49.892;18.914;2023-07-20T05:08:30;98164.31;;;24.53;48.15
82035;BME280;71599;49.892;18.914;2023-07-20T05:13:31;98163.50;;;25.85;44.52
82035;BME280;71599;49.892;18.914;2023-07-20T05:18:33;98171.25;;;26.17;41.94
82035;BME280;71599;49.892;18.914;2023-07-20T05:23:34;98162.38;;;26.74;42.74
82035;BME280;71599;49.892;18.914;2023-07-20T05:28:35;98175.13;;;26.56;42.61
82035;BME280;71599;49.892;18.914;2023-07-20T05:33:38;98164.75;;;26.11;43.80
82035;BME280;71599;49.892;18.914;2023-07-20T05:38:39;98172.16;;;25.87;44.85
82035;BME280;71599;49.892;18.914;2023-07-20T05:43:40;98159.25;;;26.90;41.16
82035;BME280;71599;49.892;18.914;2023-07-20T05:48:42;98163.31;;;27.22;42.13
82035;BME280;71599;49.892;18.914;2023-07-20T05:53:43;98160.00;;;27.65;40.20
82035;BME280;71599;49.892;18.914;2023-07-20T05:58:44;98157.81;;;28.17;41.78
82035;BME280;71599;49.892;18.914;2023-07-20T06:03:46;98154.22;;;28.31;38.85
82035;BME280;71599;49.892;18.914;2023-07-20T06:08:47;98144.66;;;27.84;39.73
82035;BME280;71599;49.892;18.914;2023-07-20T06:13:48;98148.22;;;28.77;37.90
82035;BME280;71599;49.892;18.914;2023-07-20T06:18:51;98159.25;;;29.65;37.07
82035;BME280;71599;49.892;18.914;2023-07-20T06:23:52;98156.03;;;29.52;36.84
82035;BME280;71599;49.892;18.914;2023-07-20T06:28:53;98168.22;;;30.24;35.42
82035;BME280;71599;49.892;18.914;2023-07-20T06:33:55;98162.97;;;29.91;35.77
82035;BME280;71599;49.892;18.914;2023-07-20T06:38:56;98169.47;;;30.43;33.89
82035;BME280;71599;49.892;18.914;2023-07-20T06:43:57;98168.88;;;30.59;33.77
82035;BME280;71599;49.892;18.914;2023-07-20T06:49:00;98160.59;;;30.76;34.61
82035;BME280;71599;49.892;18.914;2023-07-20T06:54:01;98161.81;;;30.23;35.61
82035;BME280;71599;49.892;18.914;2023-07-20T06:59:02;98164.28;;;29.96;35.71
82035;BME280;71599;49.892;18.914;2023-07-20T07:04:04;98173.06;;;30.03;34.85
82035;BME280;71599;49.892;18.914;2023-07-20T07:09:06;98170.50;;;29.85;35.61
82035;BME280;71599;49.892;18.914;2023-07-20T07:14:07;98162.38;;;30.07;35.31
82035;BME280;71599;49.892;18.914;2023-07-20T07:19:09;98163.06;;;28.97;35.82
82035;BME280;71599;49.892;18.914;2023-07-20T07:24:10;98167.16;;;29.46;36.21
82035;BME280;71599;49.892;18.914;2023-07-20T07:29:11;98168.25;;;29.89;34.95
82035;BME280;71599;49.892;18.914;2023-07-20T07:34:14;98164.84;;;29.79;35.15
82035;BME280;71599;49.892;18.914;2023-07-20T07:39:15;98168.78;;;28.88;37.79
82035;BME280;71599;49.892;18.914;2023-07-20T07:44:16;98173.41;;;29.35;37.40
82035;BME280;71599;49.892;18.914;2023-07-20T07:49:18;98177.38;;;29.14;36.40
82035;BME280;71599;49.892;18.914;2023-07-20T07:54:19;98175.75;;;28.93;36.33
82035;BME280;71599;49.892;18.914;2023-07-20T07:59:20;98177.09;;;28.15;38.95
82035;BME280;71599;49.892;18.914;2023-07-20T08:04:22;98176.75;;;28.22;38.08
82035;BME280;71599;49.892;18.914;2023-07-20T08:09:23;98191.53;;;27.75;39.24
82035;BME280;71599;49.892;18.914;2023-07-20T08:14:24;98200.31;;;27.17;39.86
82035;BME280;71599;49.892;18.914;2023-07-20T08:19:27;98211.91;;;26.64;41.33
82035;BME280;71599;49.892;18.914;2023-07-20T08:24:28;98202.09;;;26.87;40.18
82035;BME280;71599;49.892;18.914;2023-07-20T08:29:29;98200.25;;;26.93;40.14
82035;BME280;71599;49.892;18.914;2023-07-20T08:34:31;98206.41;;;27.06;38.30
82035;BME280;71599;49.892;18.914;2023-07-20T08:39:32;98205.84;;;27.35;38.86
82035;BME280;71599;49.892;18.914;2023-07-20T08:44:33;98208.59;;;27.44;39.13
82035;BME280;71599;49.892;18.914;2023-07-20T08:49:36;98224.31;;;26.63;40.21
82035;BME280;71599;49.892;18.914;2023-07-20T08:54:40;98205.44;;;27.60;39.44
82035;BME280;71599;49.892;18.914;2023-07-20T08:59:41;98203.78;;;28.25;38.03
82035;BME280;71599;49.892;18.914;2023-07-20T09:04:44;98214.66;;;28.61;37.66
82035;BME280;71599;49.892;18.914;2023-07-20T09:09:45;98206.78;;;28.21;38.92
82035;BME280;71599;49.892;18.914;2023-07-20T09:14:46;98202.06;;;28.42;38.15
82035;BME280;71599;49.892;18.914;2023-07-20T09:19:48;98200.59;;;28.32;37.34
82035;BME280;71599;49.892;18.914;2023-07-20T09:24:52;98193.94;;;28.30;38.64
82035;BME280;71599;49.892;18.914;2023-07-20T09:29:53;98203.41;;;28.32;39.35
82035;BME280;71599;49.892;18.914;2023-07-20T09:34:56;98198.53;;;28.18;36.24
82035;BME280;71599;49.892;18.914;2023-07-20T09:39:57;98200.69;;;28.23;37.20
82035;BME280;71599;49.892;18.914;2023-07-20T09:44:58;98202.41;;;27.73;38.26
82035;BME280;71599;49.892;18.914;2023-07-20T09:50:01;98188.06;;;28.04;39.57
82035;BME280;71599;49.892;18.914;2023-07-20T09:55:03;98191.72;;;29.01;37.69
82035;BME280;71599;49.892;18.914;2023-07-20T10:00:06;98181.00;;;29.50;35.20
82035;BME280;71599;49.892;18.914;2023-07-20T10:05:11;98170.56;;;30.05;33.86
82035;BME280;71599;49.892;18.914;2023-07-20T10:10:14;98180.31;;;29.55;35.42
82035;BME280;71599;49.892;18.914;2023-07-20T10:15:20;98176.53;;;28.79;36.39
82035;BME280;71599;49.892;18.914;2023-07-20T10:20:23;98177.66;;;29.16;36.14
82035;BME280;71599;49.892;18.914;2023-07-20T10:25:24;98189.00;;;29.07;35.84
82035;BME280;71599;49.892;18.914;2023-07-20T10:30:26;98177.50;;;29.55;34.78
82035;BME280;71599;49.892;18.914;2023-07-20T10:35:29;98184.34;;;29.04;35.51
82035;BME280;71599;49.892;18.914;2023-07-20T10:40:31;98179.53;;;28.22;36.01
82035;BME280;71599;49.892;18.914;2023-07-20T10:45:34;98174.50;;;29.09;34.27
82035;BME280;71599;49.892;18.914;2023-07-20T10:50:36;98178.56;;;28.93;35.33
82035;BME280;71599;49.892;18.914;2023-07-20T10:55:37;98178.91;;;28.56;35.18
82035;BME280;71599;49.892;18.914;2023-07-20T11:00:57;98184.91;;;28.11;35.66
82035;BME280;71599;49.892;18.914;2023-07-20T11:06:00;98184.88;;;27.63;38.26
82035;BME280;71599;49.892;18.914;2023-07-20T11:11:21;98192.41;;;27.48;39.34
82035;BME280;71599;49.892;18.914;2023-07-20T11:16:34;98176.56;;;27.54;38.61
82035;BME280;71599;49.892;18.914;2023-07-20T11:21:38;98186.66;;;27.52;37.72
82035;BME280;71599;49.892;18.914;2023-07-20T11:26:42;98181.50;;;27.26;38.08
82035;BME280;71599;49.892;18.914;2023-07-20T11:31:45;98189.56;;;27.24;38.50
82035;BME280;71599;49.892;18.914;2023-07-20T11:36:49;98193.56;;;26.90;39.41
82035;BME280;71599;49.892;18.914;2023-07-20T11:41:51;98190.75;;;26.81;39.37
82035;BME280;71599;49.892;18.914;2023-07-20T11:46:59;98187.69;;;26.88;39.68
82035;BME280;71599;49.892;18.914;2023-07-20T11:52:03;98188.28;;;26.92;40.80
82035;BME280;71599;49.892;18.914;2023-07-20T11:57:04;98180.16;;;27.03;39.65
82035;BME280;71599;49.892;18.914;2023-07-20T12:02:06;98169.66;;;27.64;38.92
82035;BME280;71599;49.892;18.914;2023-07-20T12:07:09;98151.81;;;28.24;35.77
82035;BME280;71599;49.892;18.914;2023-07-20T12:12:10;98152.81;;;28.36;36.45
82035;BME280;71599;49.892;18.914;2023-07-20T12:17:13;98157.47;;;28.53;37.74
82035;BME280;71599;49.892;18.914;2023-07-20T12:22:15;98141.41;;;28.39;36.51
82035;BME280;71599;49.892;18.914;2023-07-20T12:27:16;98147.00;;;29.13;34.30
82035;BME280;71599;49.892;18.914;2023-07-20T12:32:17;98135.34;;;29.49;34.25
82035;BME280;71599;49.892;18.914;2023-07-20T12:37:20;98149.47;;;29.75;33.59
82035;BME280;71599;49.892;18.914;2023-07-20T12:42:21;98153.00;;;29.20;34.22
82035;BME280;71599;49.892;18.914;2023-07-20T12:47:22;98137.78;;;29.41;35.35
82035;BME280;71599;49.892;18.914;2023-07-20T12:52:24;98135.72;;;29.97;32.47
82035;BME280;71599;49.892;18.914;2023-07-20T12:57:25;98131.63;;;29.58;32.81
82035;BME280;71599;49.892;18.914;2023-07-20T13:02:26;98137.31;;;28.79;33.12
82035;BME280;71599;49.892;18.914;2023-07-20T13:07:32;98145.47;;;28.67;33.06
82035;BME280;71599;49.892;18.914;2023-07-20T13:12:36;98131.56;;;28.88;34.71
82035;BME280;71599;49.892;18.914;2023-07-20T13:17:38;98121.63;;;29.36;32.97
82035;BME280;71599;49.892;18.914;2023-07-20T13:22:41;98123.56;;;29.30;31.96
82035;BME280;71599;49.892;18.914;2023-07-20T13:27:42;98122.25;;;29.46;32.24
82035;BME280;71599;49.892;18.914;2023-07-20T13:32:43;98120.38;;;28.88;32.86
82035;BME280;71599;49.892;18.914;2023-07-20T13:37:45;98127.00;;;28.32;32.56
82035;BME280;71599;49.892;18.914;2023-07-20T13:42:46;98118.25;;;27.76;34.40
82035;BME280;71599;49.892;18.914;2023-07-20T13:47:47;98107.19;;;27.58;35.11
82035;BME280;71599;49.892;18.914;2023-07-20T13:52:50;98112.75;;;27.34;36.29
82035;BME280;71599;49.892;18.914;2023-07-20T13:57:51;98113.72;;;27.31;36.82
82035;BME280;71599;49.892;18.914;2023-07-20T14:02:53;98118.75;;;27.18;37.16
82035;BME280;71599;49.892;18.914;2023-07-20T14:07:55;98126.13;;;27.07;38.16
82035;BME280;71599;49.892;18.914;2023-07-20T14:12:56;98132.69;;;26.94;37.30
82035;BME280;71599;49.892;18.914;2023-07-20T14:17:57;98151.84;;;26.59;37.95
82035;BME280;71599;49.892;18.914;2023-07-20T14:22:59;98194.19;;;25.85;42.58
82035;BME280;71599;49.892;18.914;2023-07-20T14:28:00;98202.00;;;24.23;47.86
82035;BME280;71599;49.892;18.914;2023-07-20T14:33:01;98218.47;;;23.20;51.61
82035;BME280;71599;49.892;18.914;2023-07-20T14:38:04;98231.28;;;22.18;55.78
82035;BME280;71599;49.892;18.914;2023-07-20T14:43:05;98225.78;;;21.69;57.47
82035;BME280;71599;49.892;18.914;2023-07-20T14:48:06;98232.78;;;21.74;56.72
82035;BME280;71599;49.892;18.914;2023-07-20T14:53:08;98232.53;;;21.68;54.82
82035;BME280;71599;49.892;18.914;2023-07-20T14:58:09;98239.34;;;21.48;53.77
82035;BME280;71599;49.892;18.914;2023-07-20T15:03:10;98241.88;;;21.58;52.34
82035;BME280;71599;49.892;18.914;2023-07-20T15:08:13;98253.00;;;22.07;51.78
82035;BME280;71599;49.892;18.914;2023-07-20T15:13:14;98239.97;;;22.49;50.24
82035;BME280;71599;49.892;18.914;2023-07-20T15:18:15;98246.66;;;22.80;49.91
82035;BME280;71599;49.892;18.914;2023-07-20T15:23:18;98234.13;;;23.01;49.26
82035;BME280;71599;49.892;18.914;2023-07-20T15:28:19;98237.84;;;23.49;47.23
82035;BME280;71599;49.892;18.914;2023-07-20T15:33:20;98229.47;;;23.74;46.91
82035;BME280;71599;49.892;18.914;2023-07-20T15:38:22;98238.44;;;24.03;45.70
82035;BME280;71599;49.892;18.914;2023-07-20T15:43:24;98235.41;;;24.23;45.74
82035;BME280;71599;49.892;18.914;2023-07-20T15:48:25;98236.75;;;24.18;45.68
82035;BME280;71599;49.892;18.914;2023-07-20T15:53:27;98229.88;;;24.45;45.41
82035;BME280;71599;49.892;18.914;2023-07-20T15:58:28;98234.19;;;24.46;44.27
82035;BME280;71599;49.892;18.914;2023-07-20T16:03:29;98237.69;;;24.59;45.08
82035;BME280;71599;49.892;18.914;2023-07-20T16:08:31;98229.28;;;24.50;43.95
82035;BME280;71599;49.892;18.914;2023-07-20T16:13:32;98236.47;;;24.60;43.93
82035;BME280;71599;49.892;18.914;2023-07-20T16:18:33;98229.06;;;24.22;44.64
82035;BME280;71599;49.892;18.914;2023-07-20T16:23:35;98234.25;;;23.86;46.27
82035;BME280;71599;49.892;18.914;2023-07-20T16:28:36;98228.19;;;23.66;45.51
82035;BME280;71599;49.892;18.914;2023-07-20T16:33:38;98231.47;;;23.73;46.24
82035;BME280;71599;49.892;18.914;2023-07-20T16:38:42;98235.25;;;23.79;45.79
82035;BME280;71599;49.892;18.914;2023-07-20T16:43:43;98239.88;;;24.08;44.63
82035;BME280;71599;49.892;18.914;2023-07-20T16:48:44;98245.09;;;24.18;44.63
82035;BME280;71599;49.892;18.914;2023-07-20T16:53:48;98252.88;;;24.11;45.26
82035;BME280;71599;49.892;18.914;2023-07-20T16:58:49;98248.31;;;24.17;45.32
82035;BME280;71599;49.892;18.914;2023-07-20T17:03:50;98252.31;;;24.16;45.79
82035;BME280;71599;49.892;18.914;2023-07-20T17:08:52;98245.69;;;24.01;45.78
82035;BME280;71599;49.892;18.914;2023-07-20T17:13:53;98246.81;;;23.91;45.36
82035;BME280;71599;49.892;18.914;2023-07-20T17:18:54;98251.28;;;23.75;45.58
82035;BME280;71599;49.892;18.914;2023-07-20T17:23:56;98255.06;;;23.81;44.82
82035;BME280;71599;49.892;18.914;2023-07-20T17:28:57;98246.72;;;23.81;45.70
82035;BME280;71599;49.892;18.914;2023-07-20T17:33:58;98252.50;;;23.74;45.71
82035;BME280;71599;49.892;18.914;2023-07-20T17:39:01;98261.28;;;23.73;45.82
82035;BME280;71599;49.892;18.914;2023-07-20T17:44:02;98271.09;;;23.65;47.08
82035;BME280;71599;49.892;18.914;2023-07-20T17:49:03;98266.97;;;23.57;46.95
82035;BME280;71599;49.892;18.914;2023-07-20T17:54:05;98263.38;;;23.43;47.45
82035;BME280;71599;49.892;18.914;2023-07-20T17:59:06;98261.06;;;23.42;47.82
82035;BME280;71599;49.892;18.914;2023-07-20T18:04:07;98272.72;;;23.37;48.83
82035;BME280;71599;49.892;18.914;2023-07-20T18:09:09;98277.84;;;23.26;49.20
82035;BME280;71599;49.892;18.914;2023-07-20T18:14:10;98276.16;;;23.16;49.64
82035;BME280;71599;49.892;18.914;2023-07-20T18:19:11;98271.38;;;23.03;49.33
82035;BME280;71599;49.892;18.914;2023-07-20T18:24:14;98276.09;;;22.90;49.36
82035;BME280;71599;49.892;18.914;2023-07-20T18:29:15;98286.25;;;22.68;50.35
82035;BME280;71599;49.892;18.914;2023-07-20T18:34:16;98289.75;;;22.56;50.26
82035;BME280;71599;49.892;18.914;2023-07-20T18:39:18;98303.06;;;22.32;51.13
82035;BME280;71599;49.892;18.914;2023-07-20T18:44:19;98295.72;;;22.09;52.00
82035;BME280;71599;49.892;18.914;2023-07-20T18:49:20;98308.78;;;21.93;52.20
82035;BME280;71599;49.892;18.914;2023-07-20T18:54:22;98310.16;;;21.68;52.51
82035;BME280;71599;49.892;18.914;2023-07-20T18:59:23;98314.44;;;21.53;51.90
82035;BME280;71599;49.892;18.914;2023-07-20T19:04:24;98326.97;;;21.41;52.93
82035;BME280;71599;49.892;18.914;2023-07-20T19:09:27;98333.19;;;21.29;53.86
82035;BME280;71599;49.892;18.914;2023-07-20T19:14:27;98332.72;;;21.11;55.85
82035;BME280;71599;49.892;18.914;2023-07-20T19:19:29;98339.41;;;20.94;55.98
82035;BME280;71599;49.892;18.914;2023-07-20T19:24:31;98345.59;;;20.82;56.82
82035;BME280;71599;49.892;18.914;2023-07-20T19:29:32;98350.19;;;20.69;57.21
82035;BME280;71599;49.892;18.914;2023-07-20T19:34:33;98353.75;;;20.46;57.29
82035;BME280;71599;49.892;18.914;2023-07-20T19:39:35;98359.72;;;20.44;59.05
82035;BME280;71599;49.892;18.914;2023-07-20T19:44:36;98355.53;;;20.36;58.61
82035;BME280;71599;49.892;18.914;2023-07-20T19:49:37;98347.56;;;20.38;57.69
82035;BME280;71599;49.892;18.914;2023-07-20T19:54:40;98350.63;;;20.44;57.88
82035;BME280;71599;49.892;18.914;2023-07-20T19:59:44;98350.69;;;20.40;58.27
82035;BME280;71599;49.892;18.914;2023-07-20T20:04:45;98357.13;;;20.34;58.59
82035;BME280;71599;49.892;18.914;2023-07-20T20:09:47;98354.47;;;20.26;58.12
82035;BME280;71599;49.892;18.914;2023-07-20T20:14:48;98355.78;;;20.18;59.13
82035;BME280;71599;49.892;18.914;2023-07-20T20:19:49;98346.53;;;20.05;59.33
82035;BME280;71599;49.892;18.914;2023-07-20T20:24:51;98347.91;;;19.94;60.85
82035;BME280;71599;49.892;18.914;2023-07-20T20:29:53;98356.28;;;19.87;60.36
82035;BME280;71599;49.892;18.914;2023-07-20T20:34:54;98329.47;;;19.83;60.34
82035;BME280;71599;49.892;18.914;2023-07-20T20:39:56;98341.63;;;19.90;60.06
82035;BME280;71599;49.892;18.914;2023-07-20T20:44:57;98344.50;;;19.82;60.85
82035;BME280;71599;49.892;18.914;2023-07-20T20:50:00;98353.22;;;19.81;61.95
82035;BME280;71599;49.892;18.914;2023-07-20T20:55:03;98352.06;;;19.78;60.41
82035;BME280;71599;49.892;18.914;2023-07-20T21:00:06;98346.22;;;19.73;59.42
82035;BME280;71599;49.892;18.914;2023-07-20T21:05:08;98352.69;;;19.63;60.31
82035;BME280;71599;49.892;18.914;2023-07-20T21:10:10;98357.66;;;19.44;60.77
82035;BME280;71599;49.892;18.914;2023-07-20T21:15:11;98355.56;;;19.22;61.34
82035;BME280;71599;49.892;18.914;2023-07-20T21:20:12;98360.41;;;19.14;61.75
82035;BME280;71599;49.892;18.914;2023-07-20T21:25:15;98357.75;;;19.03;62.04
82035;BME280;71599;49.892;18.914;2023-07-20T21:30:16;98371.63;;;19.00;60.86
82035;BME280;71599;49.892;18.914;2023-07-20T21:35:17;98372.47;;;18.93;60.99
82035;BME280;71599;49.892;18.914;2023-07-20T21:40:19;98389.00;;;18.59;65.04
82035;BME280;71599;49.892;18.914;2023-07-20T21:45:21;98379.22;;;18.48;62.78
82035;BME280;71599;49.892;18.914;2023-07-20T21:50:21;98385.50;;;18.48;62.94
82035;BME280;71599;49.892;18.914;2023-07-20T21:55:24;98374.91;;;18.43;62.90
82035;BME280;71599;49.892;18.914;2023-07-20T22:00:25;98379.38;;;18.30;63.10
82035;BME280;71599;49.892;18.914;2023-07-20T22:05:26;98381.00;;;18.24;62.76
82035;BME280;71599;49.892;18.914;2023-07-20T22:10:30;98370.94;;;18.03;64.60
82035;BME280;71599;49.892;18.914;2023-07-20T22:15:31;98378.91;;;17.91;65.96
82035;BME280;71599;49.892;18.914;2023-07-20T22:20:32;98369.25;;;17.61;64.54
82035;BME280;71599;49.892;18.914;2023-07-20T22:25:35;98379.47;;;17.61;64.94
82035;BME280;71599;49.892;18.914;2023-07-20T22:30:36;98375.50;;;17.65;64.00
82035;BME280;71599;49.892;18.914;2023-07-20T22:35:38;98389.31;;;17.55;63.95
82035;BME280;71599;49.892;18.914;2023-07-20T22:40:40;98372.81;;;17.55;63.60
82035;BME280;71599;49.892;18.914;2023-07-20T22:45:41;98378.72;;;17.50;63.17
82035;BME280;71599;49.892;18.914;2023-07-20T22:50:42;98371.28;;;17.39;62.74
82035;BME280;71599;49.892;18.914;2023-07-20T22:55:45;98374.47;;;17.38;63.53
82035;BME280;71599;49.892;18.914;2023-07-20T23:00:46;98370.97;;;17.30;63.46
82035;BME280;71599;49.892;18.914;2023-07-20T23:05:47;98384.00;;;17.19;64.33
82035;BME280;71599;49.892;18.914;2023-07-20T23:10:49;98378.94;;;17.00;64.70
82035;BME280;71599;49.892;18.914;2023-07-20T23:15:51;98384.84;;;16.98;64.14
82035;BME280;71599;49.892;18.914;2023-07-20T23:20:52;98380.94;;;16.92;63.62
82035;BME280;71599;49.892;18.914;2023-07-20T23:25:55;98373.88;;;16.84;64.42
82035;BME280;71599;49.892;18.914;2023-07-20T23:30:56;98367.63;;;16.70;64.68
82035;BME280;71599;49.892;18.914;2023-07-20T23:35:57;98370.78;;;16.57;65.54
82035;BME280;71599;49.892;18.914;2023-07-20T23:41:00;98360.56;;;16.47;65.67
82035;BME280;71599;49.892;18.914;2023-07-20T23:46:01;98369.22;;;16.42;64.99
82035;BME280;71599;49.892;18.914;2023-07-20T23:51:02;98361.34;;;16.37;64.70
82035;BME280;71599;49.892;18.914;2023-07-20T23:56:05;98368.41;;;16.35;65.09
